Time;durP1;ratioP1;P1;durP2;ratioP2;P2;SDS_P1;SDS_P2;PMS_P1;PMS_P2;Temp;Humidity;BMP_temperature;BMP_pressure;BME280_temperature;BME280_humidity;BME280_pressure;Samples;Min_cycle;Max_cycle;Signal;HPM_P1;HPM_P2
2022/09/09 00:03:02;;;;;;;25.77;14.83;;;;;;;;;;6296203;28;20044;-57
2022/09/09 00:06:19;;;;;;;24.30;14.00;;;;;;;;;;6298653;28;20503;-58
2022/09/09 00:09:24;;;;;;;26.00;14.85;;;;;;;;;;6297265;28;20044;-59
2022/09/09 00:13:04;;;;;;;31.92;16.95;;;;;;;;;;6297727;28;20064;-57
2022/09/09 00:16:17;;;;;;;32.00;17.05;;;;;;;;;;6295338;28;20048;-59
2022/09/09 00:19:44;;;;;;;33.22;16.77;;;;;;;;;;6294916;28;20221;-57
2022/09/09 00:23:12;;;;;;;32.03;18.23;;;;;;;;;;6299032;28;20431;-59
2022/09/09 00:26:13;;;;;;;29.63;16.50;;;;;;;;;;6288701;28;20147;-57
2022/09/09 00:29:35;;;;;;;33.80;17.53;;;;;;;;;;6295890;28;20055;-57
2022/09/09 00:32:37;;;;;;;32.83;17.52;;;;;;;;;;6294329;28;20048;-58
2022/09/09 00:35:41;;;;;;;31.67;16.90;;;;;;;;;;6296506;28;20645;-59
2022/09/09 00:38:49;;;;;;;29.77;17.55;;;;;;;;;;6293634;28;20143;-58
2022/09/09 00:42:14;;;;;;;31.63;17.35;;;;;;;;;;6311944;28;20047;-59
2022/09/09 00:45:33;;;;;;;31.35;17.10;;;;;;;;;;6317829;28;20403;-57
2022/09/09 00:48:59;;;;;;;29.13;16.15;;;;;;;;;;6307628;28;20056;-58
2022/09/09 00:52:18;;;;;;;31.17;16.13;;;;;;;;;;6296638;28;20154;-59
2022/09/09 00:55:47;;;;;;;29.67;16.60;;;;;;;;;;6295639;28;20100;-58
2022/09/09 00:59:16;;;;;;;29.33;16.35;;;;;;;;;;6279875;28;20040;-59
2022/09/09 01:02:30;;;;;;;31.27;17.13;;;;;;;;;;6296678;28;20048;-57
2022/09/09 01:06:01;;;;;;;28.70;16.40;;;;;;;;;;6295973;28;20124;-58
2022/09/09 01:09:36;;;;;;;27.20;14.43;;;;;;;;;;6296322;28;20080;-58
2022/09/09 01:12:41;;;;;;;25.60;14.45;;;;;;;;;;6253006;28;20127;-58
2022/09/09 01:15:44;;;;;;;30.08;15.98;;;;;;;;;;6294797;28;20131;-57
2022/09/09 01:18:49;;;;;;;28.90;15.35;;;;;;;;;;6297821;28;20135;-58
2022/09/09 01:22:12;;;;;;;26.85;14.35;;;;;;;;;;6295477;28;20056;-59
2022/09/09 01:25:43;;;;;;;32.05;15.68;;;;;;;;;;6295405;28;20142;-58
2022/09/09 01:28:47;;;;;;;29.13;15.07;;;;;;;;;;6294197;28;20037;-59
2022/09/09 01:31:59;;;;;;;30.63;15.90;;;;;;;;;;6298406;28;20131;-58
2022/09/09 01:34:59;;;;;;;28.80;15.60;;;;;;;;;;6297632;28;20063;-59
2022/09/09 01:38:00;;;;;;;29.47;16.00;;;;;;;;;;6295802;28;20068;-59
2022/09/09 01:41:01;;;;;;;37.67;18.80;;;;;;;;;;6295098;28;20040;-59
2022/09/09 01:44:03;;;;;;;37.88;18.70;;;;;;;;;;6296944;28;20684;-58
2022/09/09 01:47:04;;;;;;;37.85;18.95;;;;;;;;;;6294504;28;20047;-59
2022/09/09 01:50:08;;;;;;;35.17;17.63;;;;;;;;;;6294809;28;20448;-58
2022/09/09 01:53:09;;;;;;;34.35;17.27;;;;;;;;;;6308025;28;20491;-59
2022/09/09 01:56:29;;;;;;;35.83;17.70;;;;;;;;;;6315780;28;20123;-59
2022/09/09 01:59:51;;;;;;;54.00;30.45;;;;;;;;;;6314718;28;20805;-56
2022/09/09 02:03:08;;;;;;;45.10;24.80;;;;;;;;;;6296671;28;20051;-58
2022/09/09 02:06:19;;;;;;;40.75;20.83;;;;;;;;;;6299214;28;20047;-59
2022/09/09 02:09:23;;;;;;;39.77;20.63;;;;;;;;;;6298931;28;20123;-58
2022/09/09 02:12:25;;;;;;;36.08;18.75;;;;;;;;;;6294632;28;20045;-57
2022/09/09 02:15:57;;;;;;;38.70;19.13;;;;;;;;;;6297490;28;20225;-57
2022/09/09 02:19:06;;;;;;;34.70;17.90;;;;;;;;;;6296691;28;20475;-60
2022/09/09 02:22:07;;;;;;;34.70;18.60;;;;;;;;;;6298053;28;20131;-59
2022/09/09 02:25:12;;;;;;;36.30;18.02;;;;;;;;;;6299505;28;20093;-59
2022/09/09 02:28:15;;;;;;;31.52;16.60;;;;;;;;;;6302157;28;20048;-60
2022/09/09 02:31:21;;;;;;;33.63;17.80;;;;;;;;;;6300848;28;20051;-59
2022/09/09 02:34:24;;;;;;;33.40;16.65;;;;;;;;;;6298073;28;20127;-55
2022/09/09 02:37:29;;;;;;;34.25;18.52;;;;;;;;;;6300056;28;20044;-57
2022/09/09 02:40:30;;;;;;;33.47;17.65;;;;;;;;;;6297877;28;20085;-58
2022/09/09 02:43:34;;;;;;;33.88;17.92;;;;;;;;;;6308600;28;20487;-57
2022/09/09 02:46:53;;;;;;;36.03;18.30;;;;;;;;;;6320377;28;20067;-59
2022/09/09 02:50:10;;;;;;;36.90;19.08;;;;;;;;;;6320063;28;20084;-59
2022/09/09 02:53:23;;;;;;;36.80;17.95;;;;;;;;;;6300524;28;20040;-59
2022/09/09 02:56:28;;;;;;;33.78;17.23;;;;;;;;;;6298784;28;20044;-58
2022/09/09 02:59:30;;;;;;;34.90;17.58;;;;;;;;;;6295641;28;20132;-59
2022/09/09 03:02:30;;;;;;;38.20;16.60;;;;;;;;;;6299445;28;20048;-59
2022/09/09 03:05:31;;;;;;;34.22;17.73;;;;;;;;;;6300226;28;20485;-58
2022/09/09 03:08:32;;;;;;;33.93;17.20;;;;;;;;;;6300052;28;20384;-59
2022/09/09 03:11:32;;;;;;;38.37;18.23;;;;;;;;;;6300894;28;20117;-60
2022/09/09 03:14:33;;;;;;;40.63;19.73;;;;;;;;;;6302599;28;20045;-59
2022/09/09 03:17:34;;;;;;;32.63;17.67;;;;;;;;;;6300164;28;20138;-60
2022/09/09 03:20:34;;;;;;;33.73;17.97;;;;;;;;;;6299331;28;20435;-58
2022/09/09 03:23:35;;;;;;;34.23;18.30;;;;;;;;;;6309707;28;20083;-58
2022/09/09 03:26:37;;;;;;;36.13;18.27;;;;;;;;;;6312570;28;20090;-58
2022/09/09 03:29:38;;;;;;;34.17;17.00;;;;;;;;;;6300162;28;20123;-59
2022/09/09 03:32:39;;;;;;;31.85;16.52;;;;;;;;;;6312652;28;20093;-58
2022/09/09 03:35:46;;;;;;;31.52;16.65;;;;;;;;;;6301596;28;20071;-58
2022/09/09 03:38:46;;;;;;;27.58;15.45;;;;;;;;;;6300206;28;20048;-58
2022/09/09 03:41:48;;;;;;;27.60;16.50;;;;;;;;;;6299113;28;20054;-58
2022/09/09 03:44:50;;;;;;;31.15;14.93;;;;;;;;;;6299806;28;20047;-59
2022/09/09 03:47:50;;;;;;;37.25;16.38;;;;;;;;;;6299430;28;20077;-59
2022/09/09 03:50:53;;;;;;;31.23;16.52;;;;;;;;;;6300710;28;20035;-59
2022/09/09 03:53:55;;;;;;;27.45;14.95;;;;;;;;;;6297198;28;20072;-57
2022/09/09 03:56:55;;;;;;;30.00;15.93;;;;;;;;;;6299404;28;20056;-59
2022/09/09 03:59:57;;;;;;;31.58;15.48;;;;;;;;;;6298644;28;20628;-59
2022/09/09 04:02:57;;;;;;;29.07;14.60;;;;;;;;;;6298402;28;20048;-59
2022/09/09 04:06:00;;;;;;;28.17;15.13;;;;;;;;;;6307863;28;20617;-59
2022/09/09 04:09:03;;;;;;;30.67;14.68;;;;;;;;;;6294361;28;20059;-60
2022/09/09 04:12:04;;;;;;;29.52;15.18;;;;;;;;;;6299611;28;20079;-60
2022/09/09 04:15:05;;;;;;;30.00;14.57;;;;;;;;;;6298419;28;20055;-59
2022/09/09 04:18:06;;;;;;;24.27;14.35;;;;;;;;;;6315321;28;20044;-59
2022/09/09 04:21:07;;;;;;;27.80;14.20;;;;;;;;;;6299902;28;20044;-60
2022/09/09 04:24:08;;;;;;;29.08;14.35;;;;;;;;;;6299026;28;20178;-60
2022/09/09 04:27:09;;;;;;;32.42;16.08;;;;;;;;;;6301190;28;20525;-59
2022/09/09 04:30:12;;;;;;;28.45;15.50;;;;;;;;;;6300555;28;20490;-59
2022/09/09 04:33:13;;;;;;;28.45;14.32;;;;;;;;;;6299659;28;20135;-58
2022/09/09 04:36:14;;;;;;;31.42;15.30;;;;;;;;;;6300134;28;20694;-58
2022/09/09 04:39:14;;;;;;;36.00;19.45;;;;;;;;;;6297183;28;20055;-59
2022/09/09 04:42:17;;;;;;;34.50;17.77;;;;;;;;;;6304846;28;20063;-58
2022/09/09 04:45:18;;;;;;;40.63;20.70;;;;;;;;;;6302724;28;20097;-57
2022/09/09 04:48:20;;;;;;;39.45;21.00;;;;;;;;;;6295736;28;20041;-59
2022/09/09 04:51:21;;;;;;;;;;;;;;;;;;6298112;28;20105;-59
2022/09/09 04:54:21;;;;;;;37.28;20.00;;;;;;;;;;6306788;28;19928;-58
2022/09/09 04:57:22;;;;;;;35.88;17.15;;;;;;;;;;6303961;28;20490;-59
2022/09/09 05:00:23;;;;;;;36.40;18.40;;;;;;;;;;6296267;28;20105;-58
2022/09/09 05:03:23;;;;;;;42.57;21.77;;;;;;;;;;6293421;28;20134;-55
2022/09/09 05:06:24;;;;;;;43.47;20.13;;;;;;;;;;6315086;28;20048;-59
2022/09/09 05:09:25;;;;;;;35.92;19.20;;;;;;;;;;6317413;28;20050;-59
2022/09/09 05:12:25;;;;;;;36.72;19.38;;;;;;;;;;6318498;28;20117;-57
2022/09/09 05:15:26;;;;;;;38.35;19.23;;;;;;;;;;6314406;28;20052;-59
2022/09/09 05:18:27;;;;;;;39.38;20.30;;;;;;;;;;6314320;28;20071;-59
2022/09/09 05:21:28;;;;;;;38.90;19.95;;;;;;;;;;6315510;28;20533;-54
2022/09/09 05:24:29;;;;;;;39.70;18.63;;;;;;;;;;6311462;28;20135;-59
2022/09/09 05:27:31;;;;;;;35.67;17.90;;;;;;;;;;6317228;28;20109;-58
2022/09/09 05:30:31;;;;;;;34.40;16.95;;;;;;;;;;6313795;28;20135;-59
2022/09/09 05:33:33;;;;;;;29.35;15.35;;;;;;;;;;6316884;28;20055;-60
2022/09/09 05:36:33;;;;;;;31.33;15.65;;;;;;;;;;6307846;28;20044;-60
2022/09/09 05:39:36;;;;;;;27.73;13.45;;;;;;;;;;6290586;28;20068;-59
2022/09/09 05:42:37;;;;;;;25.83;14.38;;;;;;;;;;6302604;28;20822;-59
2022/09/09 05:45:37;;;;;;;32.75;15.40;;;;;;;;;;6311602;28;20085;-59
2022/09/09 05:48:40;;;;;;;33.92;15.73;;;;;;;;;;6296782;28;20041;-60
2022/09/09 05:51:42;;;;;;;30.75;14.63;;;;;;;;;;6296849;28;20227;-59
2022/09/09 05:54:43;;;;;;;29.23;13.98;;;;;;;;;;6293598;28;20127;-60
2022/09/09 05:57:48;;;;;;;36.92;19.67;;;;;;;;;;6308759;28;20071;-58
2022/09/09 06:00:49;;;;;;;30.60;15.00;;;;;;;;;;6302276;28;20046;-56
2022/09/09 06:03:50;;;;;;;33.00;15.88;;;;;;;;;;6305795;28;20052;-57
2022/09/09 06:06:51;;;;;;;;;;;;;;;;;;6295594;28;20056;-55
2022/09/09 06:09:51;;;;;;;30.73;15.85;;;;;;;;;;6297520;28;19969;-57
2022/09/09 06:12:53;;;;;;;30.23;14.13;;;;;;;;;;6296352;28;20076;-60
2022/09/09 06:15:53;;;;;;;32.70;15.70;;;;;;;;;;6303862;28;20049;-59
2022/09/09 06:18:56;;;;;;;31.97;14.90;;;;;;;;;;6301168;28;20467;-59
2022/09/09 06:21:56;;;;;;;33.38;15.10;;;;;;;;;;6305227;28;20067;-55
2022/09/09 06:24:57;;;;;;;31.30;15.70;;;;;;;;;;6316941;28;20044;-59
2022/09/09 06:27:57;;;;;;;27.80;14.90;;;;;;;;;;6295022;28;20047;-59
2022/09/09 06:31:04;;;;;;;26.88;13.45;;;;;;;;;;6296279;28;20047;-59
2022/09/09 06:34:06;;;;;;;30.30;15.23;;;;;;;;;;6316876;28;20052;-59
2022/09/09 06:37:08;;;;;;;26.92;14.88;;;;;;;;;;6302593;28;20131;-58
2022/09/09 06:40:09;;;;;;;27.42;14.00;;;;;;;;;;6290239;28;20518;-57
2022/09/09 06:43:09;;;;;;;27.40;13.13;;;;;;;;;;6315031;28;20142;-55
2022/09/09 06:46:13;;;;;;;25.40;13.20;;;;;;;;;;6311416;28;20646;-56
2022/09/09 06:49:14;;;;;;;26.23;13.43;;;;;;;;;;6304460;28;20071;-57
2022/09/09 06:52:14;;;;;;;25.30;12.77;;;;;;;;;;6301868;28;20048;-59
2022/09/09 06:55:16;;;;;;;25.60;12.97;;;;;;;;;;6291762;28;20503;-56
2022/09/09 06:58:16;;;;;;;24.67;12.00;;;;;;;;;;6310918;28;20048;-58
2022/09/09 07:01:23;;;;;;;23.87;11.93;;;;;;;;;;6293141;28;20498;-57
2022/09/09 07:04:23;;;;;;;21.40;11.75;;;;;;;;;;6314742;28;20117;-54
2022/09/09 07:07:24;;;;;;;22.77;11.88;;;;;;;;;;6300998;28;20406;-55
2022/09/09 07:10:25;;;;;;;34.30;19.15;;;;;;;;;;6292537;28;20049;-57
2022/09/09 07:13:27;;;;;;;46.90;25.27;;;;;;;;;;6297261;28;20143;-57
2022/09/09 07:16:29;;;;;;;30.77;15.13;;;;;;;;;;6297648;28;20033;-55
2022/09/09 07:19:29;;;;;;;21.05;11.18;;;;;;;;;;6293601;28;20136;-58
2022/09/09 07:22:30;;;;;;;20.40;11.00;;;;;;;;;;6304711;28;20052;-59
2022/09/09 07:25:30;;;;;;;22.30;12.13;;;;;;;;;;6320182;28;20040;-57
2022/09/09 07:28:31;;;;;;;25.07;13.43;;;;;;;;;;6294996;28;20048;-56
2022/09/09 07:31:35;;;;;;;30.93;16.47;;;;;;;;;;6297181;28;20110;-56
2022/09/09 07:34:35;;;;;;;20.27;11.63;;;;;;;;;;6295182;28;20487;-58
2022/09/09 07:37:37;;;;;;;23.33;9.57;;;;;;;;;;6296381;28;20068;-58
2022/09/09 07:40:39;;;;;;;;;;;;;;;;;;6296359;28;20433;-58
2022/09/09 07:43:41;;;;;;;17.88;9.80;;;;;;;;;;6316808;28;20453;-58
2022/09/09 07:46:43;;;;;;;17.75;10.13;;;;;;;;;;6310123;28;20047;-58
2022/09/09 07:49:46;;;;;;;16.45;10.13;;;;;;;;;;6293300;28;20522;-55
2022/09/09 07:52:46;;;;;;;18.50;10.40;;;;;;;;;;6304460;28;20048;-56
2022/09/09 07:55:47;;;;;;;17.63;10.37;;;;;;;;;;6317413;28;20044;-58
2022/09/09 07:58:48;;;;;;;17.33;9.37;;;;;;;;;;6293254;28;20075;-57
2022/09/09 08:01:54;;;;;;;20.30;11.38;;;;;;;;;;6295521;28;20440;-55
2022/09/09 08:04:54;;;;;;;16.70;8.35;;;;;;;;;;6295002;28;20055;-59
2022/09/09 08:07:55;;;;;;;13.73;8.53;;;;;;;;;;6295552;28;20395;-57
2022/09/09 08:11:04;;;;;;;20.93;9.00;;;;;;;;;;6294424;28;20063;-59
2022/09/09 08:14:10;;;;;;;15.43;9.52;;;;;;;;;;6294220;28;20072;-58
2022/09/09 08:17:11;;;;;;;13.82;8.02;;;;;;;;;;6295523;28;20407;-59
2022/09/09 08:20:11;;;;;;;16.57;9.07;;;;;;;;;;6292140;28;20052;-59
2022/09/09 08:23:12;;;;;;;15.07;9.20;;;;;;;;;;6301301;28;20534;-59
2022/09/09 08:26:19;;;;;;;14.97;7.37;;;;;;;;;;6299388;28;20068;-58
2022/09/09 08:29:20;;;;;;;15.77;7.93;;;;;;;;;;6297331;28;20063;-59
2022/09/09 08:32:20;;;;;;;13.27;7.03;;;;;;;;;;6297508;28;20122;-56
2022/09/09 08:35:21;;;;;;;13.47;7.57;;;;;;;;;;6296740;28;20499;-58
2022/09/09 08:38:21;;;;;;;10.83;7.13;;;;;;;;;;6296702;28;20068;-59
2022/09/09 08:41:51;;;;;;;13.70;7.27;;;;;;;;;;6296280;28;20510;-58
2022/09/09 08:45:13;;;;;;;14.32;6.93;;;;;;;;;;6283020;28;20120;-59
2022/09/09 08:48:21;;;;;;;13.63;6.78;;;;;;;;;;6296149;28;20090;-59
2022/09/09 08:51:26;;;;;;;9.85;6.38;;;;;;;;;;6298719;28;20148;-59
2022/09/09 08:54:33;;;;;;;11.50;6.68;;;;;;;;;;6297341;28;20050;-58
2022/09/09 08:57:33;;;;;;;12.50;6.55;;;;;;;;;;6299808;28;20265;-57
2022/09/09 09:00:59;;;;;;;10.10;7.03;;;;;;;;;;6294862;28;20118;-57
2022/09/09 09:04:31;;;;;;;7.93;6.03;;;;;;;;;;6298877;28;20087;-58
2022/09/09 09:07:43;;;;;;;10.23;6.50;;;;;;;;;;6294944;28;20109;-59
2022/09/09 09:10:53;;;;;;;8.90;6.53;;;;;;;;;;6297376;28;20082;-59
2022/09/09 09:13:59;;;;;;;11.60;6.03;;;;;;;;;;6298589;28;20092;-59
2022/09/09 09:17:03;;;;;;;12.20;6.80;;;;;;;;;;6296566;28;20040;-57
2022/09/09 09:20:12;;;;;;;11.60;6.55;;;;;;;;;;6297221;28;20044;-58
2022/09/09 09:23:20;;;;;;;8.02;5.63;;;;;;;;;;6306079;28;20052;-59
2022/09/09 09:26:30;;;;;;;14.43;6.07;;;;;;;;;;6314742;28;20055;-59
2022/09/09 09:29:31;;;;;;;9.80;5.50;;;;;;;;;;6315841;28;20491;-59
2022/09/09 09:32:34;;;;;;;8.53;5.73;;;;;;;;;;6299977;28;20044;-59
2022/09/09 09:35:35;;;;;;;8.05;4.80;;;;;;;;;;6300401;28;20135;-60
2022/09/09 09:38:37;;;;;;;8.27;5.73;;;;;;;;;;6312096;28;20058;-56
2022/09/09 09:41:45;;;;;;;7.07;5.28;;;;;;;;;;6310481;28;20047;-56
2022/09/09 09:44:46;;;;;;;12.18;6.05;;;;;;;;;;6299644;28;20083;-57
2022/09/09 09:48:04;;;;;;;9.70;5.73;;;;;;;;;;6280578;28;20067;-59
2022/09/09 09:51:10;;;;;;;8.95;6.10;;;;;;;;;;6298565;28;20051;-57
2022/09/09 09:54:22;;;;;;;8.40;5.53;;;;;;;;;;6296260;28;20093;-58
2022/09/09 09:57:29;;;;;;;7.57;5.35;;;;;;;;;;6296162;28;20044;-59
2022/09/09 10:00:30;;;;;;;7.05;4.80;;;;;;;;;;6293584;28;20079;-59
2022/09/09 10:03:37;;;;;;;7.83;5.27;;;;;;;;;;6295672;28;20048;-57
2022/09/09 10:06:39;;;;;;;6.20;4.82;;;;;;;;;;6303207;28;20083;-59
2022/09/09 10:09:40;;;;;;;8.70;5.38;;;;;;;;;;6316764;28;20036;-56
2022/09/09 10:12:56;;;;;;;9.80;5.47;;;;;;;;;;6316015;28;20560;-59
2022/09/09 10:16:08;;;;;;;10.55;5.70;;;;;;;;;;6301486;28;20050;-58
2022/09/09 10:19:14;;;;;;;8.90;5.45;;;;;;;;;;6296726;28;20051;-58
2022/09/09 10:22:17;;;;;;;9.95;5.88;;;;;;;;;;6295180;28;20048;-58
2022/09/09 10:25:27;;;;;;;9.43;5.50;;;;;;;;;;6293656;28;20079;-57
2022/09/09 10:28:36;;;;;;;8.65;5.22;;;;;;;;;;6294142;28;20063;-59
2022/09/09 10:32:31;;;;;;;8.13;4.88;;;;;;;;;;6294500;28;20063;-59
2022/09/09 10:35:39;;;;;;;6.82;5.03;;;;;;;;;;6295496;28;20044;-59
2022/09/09 10:38:46;;;;;;;7.30;4.78;;;;;;;;;;6295552;28;20047;-59
2022/09/09 10:42:12;;;;;;;8.63;5.65;;;;;;;;;;6295897;28;20056;-59
2022/09/09 10:45:33;;;;;;;8.75;5.07;;;;;;;;;;6295345;28;20098;-59
2022/09/09 10:48:56;;;;;;;7.53;5.17;;;;;;;;;;6300530;28;20044;-57
2022/09/09 10:52:15;;;;;;;8.52;4.88;;;;;;;;;;6298372;28;20186;-59
2022/09/09 10:55:21;;;;;;;7.20;4.93;;;;;;;;;;6298549;28;20046;-59
2022/09/09 10:58:47;;;;;;;8.35;5.25;;;;;;;;;;6299379;28;21692;-59
2022/09/09 11:01:59;;;;;;;7.40;5.47;;;;;;;;;;6292681;28;20131;-59
2022/09/09 11:05:00;;;;;;;9.45;5.20;;;;;;;;;;6300714;28;20136;-59
2022/09/09 11:08:05;;;;;;;11.03;4.50;;;;;;;;;;6303111;28;20052;-59
2022/09/09 11:11:32;;;;;;;6.72;4.35;;;;;;;;;;6310032;28;20154;-59
2022/09/09 11:14:47;;;;;;;7.13;4.20;;;;;;;;;;6277598;28;20051;-58
2022/09/09 11:17:56;;;;;;;8.65;4.80;;;;;;;;;;6293495;28;20152;-57
2022/09/09 11:21:01;;;;;;;6.25;4.15;;;;;;;;;;6297600;28;20044;-58
2022/09/09 11:24:40;;;;;;;7.93;5.00;;;;;;;;;;6308170;28;20501;-58
2022/09/09 11:27:59;;;;;;;11.30;4.60;;;;;;;;;;6304164;28;20055;-58
2022/09/09 11:31:09;;;;;;;9.32;4.72;;;;;;;;;;6300359;28;20139;-62
2022/09/09 11:34:53;;;;;;;9.15;5.03;;;;;;;;;;6298158;28;20060;-59
2022/09/09 11:38:20;;;;;;;12.20;4.80;;;;;;;;;;6293447;28;20071;-60
2022/09/09 11:41:21;;;;;;;8.15;5.07;;;;;;;;;;6298372;28;20052;-59
2022/09/09 11:44:30;;;;;;;8.98;5.82;;;;;;;;;;6296301;28;20058;-58
2022/09/09 11:47:31;;;;;;;8.60;4.78;;;;;;;;;;6297687;28;20411;-59
2022/09/09 11:50:34;;;;;;;7.63;4.80;;;;;;;;;;6300287;28;20055;-59
2022/09/09 11:53:47;;;;;;;7.40;4.55;;;;;;;;;;6301070;28;20653;-59
2022/09/09 11:56:48;;;;;;;6.53;3.60;;;;;;;;;;6298958;28;20487;-60
2022/09/09 11:59:52;;;;;;;9.48;3.28;;;;;;;;;;6297643;28;20140;-59
2022/09/09 12:02:53;;;;;;;7.40;3.65;;;;;;;;;;6299354;28;20045;-58
2022/09/09 12:05:55;;;;;;;6.10;3.33;;;;;;;;;;6300725;28;20047;-60
2022/09/09 12:09:23;;;;;;;8.95;3.80;;;;;;;;;;6298317;28;20054;-59
2022/09/09 12:12:26;;;;;;;10.82;4.20;;;;;;;;;;6298908;28;20431;-59
2022/09/09 12:15:28;;;;;;;6.85;4.03;;;;;;;;;;6299027;28;20185;-58
2022/09/09 12:18:37;;;;;;;15.60;3.97;;;;;;;;;;6296098;28;20068;-59
2022/09/09 12:21:57;;;;;;;7.93;3.67;;;;;;;;;;6296864;28;20096;-59
2022/09/09 12:25:19;;;;;;;7.28;4.03;;;;;;;;;;6299468;28;20048;-56
2022/09/09 12:28:40;;;;;;;7.03;3.42;;;;;;;;;;6296857;28;20046;-56
2022/09/09 12:31:57;;;;;;;5.30;3.50;;;;;;;;;;6296374;28;20156;-59
2022/09/09 12:35:09;;;;;;;7.63;3.60;;;;;;;;;;6297372;28;20491;-57
2022/09/09 12:38:19;;;;;;;6.75;3.60;;;;;;;;;;6298524;28;20060;-56
2022/09/09 12:41:27;;;;;;;5.65;3.63;;;;;;;;;;6299255;28;20499;-59
2022/09/09 12:44:28;;;;;;;6.97;3.50;;;;;;;;;;6316301;28;20090;-59
2022/09/09 12:47:51;;;;;;;6.65;3.85;;;;;;;;;;6299638;28;20669;-58
2022/09/09 12:50:52;;;;;;;7.00;3.60;;;;;;;;;;6293337;28;20051;-57
2022/09/09 12:53:54;;;;;;;7.20;4.15;;;;;;;;;;6299973;28;20174;-59
2022/09/09 12:56:54;;;;;;;6.43;3.78;;;;;;;;;;6292623;28;20079;-58
2022/09/09 13:00:13;;;;;;;6.10;3.73;;;;;;;;;;6291800;28;20540;-59
2022/09/09 13:03:20;;;;;;;9.45;4.53;;;;;;;;;;6294911;28;20052;-59
2022/09/09 13:06:24;;;;;;;8.80;4.60;;;;;;;;;;6301522;28;20596;-58
2022/09/09 13:09:26;;;;;;;8.02;3.97;;;;;;;;;;6300259;28;20063;-58
2022/09/09 13:12:26;;;;;;;;;;;;;;;;;;6297313;28;20072;-58
2022/09/09 13:15:29;;;;;;;8.68;4.43;;;;;;;;;;6293754;28;20080;-55
2022/09/09 13:18:42;;;;;;;9.13;4.25;;;;;;;;;;6290893;28;20223;-60
2022/09/09 13:21:43;;;;;;;7.00;4.10;;;;;;;;;;6289199;28;20440;-55
2022/09/09 13:24:44;;;;;;;8.32;4.80;;;;;;;;;;6297558;28;20162;-57
2022/09/09 13:28:03;;;;;;;7.53;4.37;;;;;;;;;;6300693;28;20048;-59
2022/09/09 13:31:18;;;;;;;7.28;4.18;;;;;;;;;;6296946;28;20192;-54
2022/09/09 13:34:31;;;;;;;6.93;4.13;;;;;;;;;;6300927;28;20052;-57
2022/09/09 13:37:36;;;;;;;8.75;4.30;;;;;;;;;;6302344;28;20044;-54
2022/09/09 13:40:37;;;;;;;7.82;4.07;;;;;;;;;;6275495;28;20139;-55
2022/09/09 13:43:47;;;;;;;7.35;4.47;;;;;;;;;;6280507;28;20304;-54
2022/09/09 13:46:47;;;;;;;7.32;3.95;;;;;;;;;;6279160;28;20044;-59
2022/09/09 13:49:48;;;;;;;7.67;4.10;;;;;;;;;;6275163;28;20052;-55
2022/09/09 13:52:51;;;;;;;9.60;5.20;;;;;;;;;;6277977;28;20131;-58
2022/09/09 13:55:52;;;;;;;7.90;4.35;;;;;;;;;;6278136;28;20075;-49
2022/09/09 13:58:53;;;;;;;9.27;4.18;;;;;;;;;;6269388;28;20164;-53
2022/09/09 14:01:54;;;;;;;8.70;4.10;;;;;;;;;;6278181;28;20052;-54
2022/09/09 14:04:55;;;;;;;7.40;4.30;;;;;;;;;;6280257;28;20090;-53
2022/09/09 14:07:56;;;;;;;11.15;4.68;;;;;;;;;;6279469;28;20061;-54
2022/09/09 14:10:59;;;;;;;5.57;4.03;;;;;;;;;;6270332;28;21301;-57
2022/09/09 14:14:00;;;;;;;8.10;4.30;;;;;;;;;;6270038;28;20102;-55
2022/09/09 14:17:01;;;;;;;6.40;4.10;;;;;;;;;;6271823;28;20426;-58
2022/09/09 14:20:09;;;;;;;6.43;3.80;;;;;;;;;;6277087;28;20083;-57
2022/09/09 14:23:11;;;;;;;8.45;4.60;;;;;;;;;;6281423;28;20048;-57
2022/09/09 14:26:13;;;;;;;7.93;4.35;;;;;;;;;;6280141;28;20171;-57
2022/09/09 14:29:13;;;;;;;8.73;4.47;;;;;;;;;;6280356;28;20143;-56
2022/09/09 14:32:14;;;;;;;6.70;4.20;;;;;;;;;;6280062;28;20403;-57
2022/09/09 14:35:14;;;;;;;6.77;4.30;;;;;;;;;;6281522;28;20044;-53
2022/09/09 14:38:15;;;;;;;6.40;4.20;;;;;;;;;;6287884;28;20524;-57
2022/09/09 14:41:17;;;;;;;7.90;4.33;;;;;;;;;;6297110;28;20041;-54
2022/09/09 14:44:18;;;;;;;11.00;4.75;;;;;;;;;;6299037;28;20942;-58
2022/09/09 14:47:19;;;;;;;8.27;4.33;;;;;;;;;;6300216;28;20052;-57
2022/09/09 14:50:21;;;;;;;9.43;5.03;;;;;;;;;;6298072;28;20051;-58
2022/09/09 14:53:21;;;;;;;6.90;4.50;;;;;;;;;;6295836;28;20044;-58
2022/09/09 14:56:24;;;;;;;8.27;4.60;;;;;;;;;;6296681;28;20183;-58
2022/09/09 14:59:25;;;;;;;6.75;4.40;;;;;;;;;;6297022;28;20067;-58
2022/09/09 15:02:25;;;;;;;6.78;4.25;;;;;;;;;;6297378;28;20075;-57
2022/09/09 15:05:27;;;;;;;7.70;4.40;;;;;;;;;;6296962;28;20062;-58
2022/09/09 15:08:28;;;;;;;7.93;4.50;;;;;;;;;;6297022;28;20142;-58
2022/09/09 15:11:32;;;;;;;8.57;4.33;;;;;;;;;;6297309;28;20048;-58
2022/09/09 15:14:33;;;;;;;8.70;4.68;;;;;;;;;;6298948;28;20139;-55
2022/09/09 15:17:35;;;;;;;6.40;4.50;;;;;;;;;;6302466;28;20055;-57
2022/09/09 15:20:37;;;;;;;8.07;4.78;;;;;;;;;;6294780;28;20119;-57
2022/09/09 15:23:38;;;;;;;8.25;4.55;;;;;;;;;;6294900;28;20117;-58
2022/09/09 15:26:39;;;;;;;7.47;4.22;;;;;;;;;;6295869;28;20067;-55
2022/09/09 15:29:41;;;;;;;10.93;4.40;;;;;;;;;;6294795;28;20041;-58
2022/09/09 15:32:42;;;;;;;9.13;4.18;;;;;;;;;;6295608;28;20054;-58
2022/09/09 15:35:42;;;;;;;8.57;4.97;;;;;;;;;;6298025;28;20044;-58
2022/09/09 15:38:43;;;;;;;7.63;4.88;;;;;;;;;;6305419;28;20545;-58
2022/09/09 15:41:45;;;;;;;8.90;4.43;;;;;;;;;;6311114;28;20728;-58
2022/09/09 15:44:45;;;;;;;7.82;5.07;;;;;;;;;;6315992;28;20405;-58
2022/09/09 15:47:47;;;;;;;11.13;5.53;;;;;;;;;;6318373;28;20054;-56
2022/09/09 15:51:02;;;;;;;10.23;5.45;;;;;;;;;;6315284;28;20092;-58
2022/09/09 15:54:03;;;;;;;10.25;5.15;;;;;;;;;;6318818;28;20052;-57
2022/09/09 15:57:05;;;;;;;10.35;4.85;;;;;;;;;;6307884;28;20078;-55
2022/09/09 16:00:06;;;;;;;11.45;5.10;;;;;;;;;;6308623;28;20058;-57
2022/09/09 16:03:07;;;;;;;;;;;;;;;;;;6305955;28;20156;-59
2022/09/09 16:06:09;;;;;;;11.40;4.97;;;;;;;;;;6308107;28;20294;-56
2022/09/09 16:09:10;;;;;;;9.98;5.20;;;;;;;;;;6303140;28;20131;-59
2022/09/09 16:12:12;;;;;;;8.77;5.88;;;;;;;;;;6304052;28;20208;-54
2022/09/09 16:15:13;;;;;;;13.38;5.60;;;;;;;;;;6307632;28;20070;-56
2022/09/09 16:18:15;;;;;;;10.73;5.33;;;;;;;;;;6305810;28;20048;-58
2022/09/09 16:21:21;;;;;;;9.93;6.03;;;;;;;;;;6306204;28;20081;-59
2022/09/09 16:24:23;;;;;;;9.57;6.18;;;;;;;;;;6304478;28;21435;-54
2022/09/09 16:27:24;;;;;;;13.27;6.70;;;;;;;;;;6304108;28;20148;-55
2022/09/09 16:30:24;;;;;;;13.67;6.90;;;;;;;;;;6303468;28;20052;-59
2022/09/09 16:33:26;;;;;;;10.67;6.03;;;;;;;;;;6304219;28;20970;-59
2022/09/09 16:36:29;;;;;;;12.60;5.93;;;;;;;;;;6305019;28;20418;-59
2022/09/09 16:39:30;;;;;;;10.70;6.75;;;;;;;;;;6297330;28;20056;-58
2022/09/09 16:42:30;;;;;;;14.83;6.60;;;;;;;;;;6297105;28;20457;-52
2022/09/09 16:45:32;;;;;;;;;;;;;;;;;;6301196;28;20136;-53
2022/09/09 16:48:33;;;;;;;11.07;6.43;;;;;;;;;;6299153;28;20288;-59
2022/09/09 16:51:41;;;;;;;10.93;6.57;;;;;;;;;;6289331;28;20048;-59
2022/09/09 16:54:41;;;;;;;14.43;6.50;;;;;;;;;;6291996;28;20047;-58
2022/09/09 16:57:42;;;;;;;13.50;7.47;;;;;;;;;;6290140;28;20086;-58
2022/09/09 17:00:42;;;;;;;17.00;7.87;;;;;;;;;;6288508;28;22108;-58
2022/09/09 17:03:43;;;;;;;15.50;7.53;;;;;;;;;;6288745;28;20047;-58
2022/09/09 17:06:46;;;;;;;13.67;7.73;;;;;;;;;;6291755;28;20043;-60
2022/09/09 17:09:46;;;;;;;18.30;8.30;;;;;;;;;;6289207;28;20130;-59
2022/09/09 17:12:47;;;;;;;15.13;8.30;;;;;;;;;;6288150;28;20052;-58
2022/09/09 17:15:47;;;;;;;17.30;8.97;;;;;;;;;;6290210;28;20093;-59
2022/09/09 17:18:51;;;;;;;16.63;9.17;;;;;;;;;;6288531;28;20554;-52
2022/09/09 17:21:52;;;;;;;19.63;9.68;;;;;;;;;;6289505;28;20201;-59
2022/09/09 17:24:52;;;;;;;18.40;9.70;;;;;;;;;;6292236;28;20052;-58
2022/09/09 17:27:53;;;;;;;23.23;10.47;;;;;;;;;;6291631;28;20164;-51
2022/09/09 17:30:54;;;;;;;26.03;13.37;;;;;;;;;;6290035;28;20079;-55
2022/09/09 17:33:55;;;;;;;23.10;11.73;;;;;;;;;;6292095;28;21687;-59
2022/09/09 17:36:55;;;;;;;25.30;10.80;;;;;;;;;;6295151;28;20053;-60
2022/09/09 17:39:57;;;;;;;20.77;10.37;;;;;;;;;;6292221;28;20160;-54
2022/09/09 17:42:58;;;;;;;;;;;;;;;;;;6295566;28;20094;-54
2022/09/09 17:46:13;;;;;;;27.75;14.88;;;;;;;;;;6292590;28;19932;-50
2022/09/09 17:49:17;;;;;;;23.65;12.60;;;;;;;;;;6289826;28;20057;-54
2022/09/09 17:52:18;;;;;;;34.45;16.13;;;;;;;;;;6292031;28;20093;-58
2022/09/09 17:55:18;;;;;;;23.47;13.27;;;;;;;;;;6291503;28;20056;-59
2022/09/09 17:58:19;;;;;;;24.13;13.23;;;;;;;;;;6292320;28;20060;-52
2022/09/09 18:01:31;;;;;;;19.37;11.37;;;;;;;;;;6293356;28;20059;-49
2022/09/09 18:04:31;;;;;;;32.88;13.20;;;;;;;;;;6287482;28;20047;-53
2022/09/09 18:07:33;;;;;;;21.37;12.63;;;;;;;;;;6290288;28;20059;-58
2022/09/09 18:10:34;;;;;;;93.03;58.75;;;;;;;;;;6290240;28;20050;-56
2022/09/09 18:13:34;;;;;;;68.00;34.77;;;;;;;;;;6294016;28;20052;-57
2022/09/09 18:16:35;;;;;;;42.53;23.57;;;;;;;;;;6290365;28;20053;-54
2022/09/09 18:19:36;;;;;;;33.88;17.75;;;;;;;;;;6291701;28;20075;-50